createdAt,value
2016-12-03T00:00:41.795Z,-79
2016-12-03T00:05:38.236Z,-80
2016-12-03T00:10:34.902Z,-77
2016-12-03T00:15:31.490Z,-74
2016-12-03T00:20:27.801Z,-80
2016-12-03T00:25:24.635Z,-79
2016-12-03T00:30:20.978Z,-80
2016-12-03T00:35:17.637Z,-81
2016-12-03T00:40:14.333Z,-81
2016-12-03T00:45:10.979Z,-79
2016-12-03T00:50:07.391Z,-79
2016-12-03T00:55:03.475Z,-78
2016-12-03T00:59:59.975Z,-79
2016-12-03T01:04:57.220Z,-80
2016-12-03T01:09:56.173Z,-80
2016-12-03T01:14:52.110Z,-80
2016-12-03T01:19:48.792Z,-79
2016-12-03T01:24:45.662Z,-79
2016-12-03T01:29:43.127Z,-81
2016-12-03T01:34:40.440Z,-79
2016-12-03T01:39:36.944Z,-80
2016-12-03T01:44:33.609Z,-79
2016-12-03T01:49:30.500Z,-80
2016-12-03T01:54:27.152Z,-79
2016-12-03T01:59:23.739Z,-80
2016-12-03T02:04:20.355Z,-80
2016-12-03T02:09:16.736Z,-79
2016-12-03T02:14:14.685Z,-80
2016-12-03T02:19:10.909Z,-79
2016-12-03T02:24:08.293Z,-79
2016-12-03T02:29:04.643Z,-79
2016-12-03T02:34:01.399Z,-80
2016-12-03T02:38:57.633Z,-80
2016-12-03T02:43:54.361Z,-80
2016-12-03T02:48:50.953Z,-80
2016-12-03T02:53:48.190Z,-80
2016-12-03T02:58:45.974Z,-80
2016-12-03T03:03:43.144Z,-80
2016-12-03T03:08:40.310Z,-80
2016-12-03T03:13:36.852Z,-78
2016-12-03T03:18:34.342Z,-81
2016-12-03T03:23:31.193Z,-81
2016-12-03T03:28:28.361Z,-78
2016-12-03T03:33:25.912Z,-80
2016-12-03T03:38:22.380Z,-80
2016-12-03T03:43:18.944Z,-81
2016-12-03T03:48:15.414Z,-72
2016-12-03T03:53:11.945Z,-74
2016-12-03T03:58:08.495Z,-72
2016-12-03T04:03:05.149Z,-80
2016-12-03T04:08:01.356Z,-80
2016-12-03T04:12:57.823Z,-80
2016-12-03T04:17:54.260Z,-80
2016-12-03T04:22:50.577Z,-80
2016-12-03T04:27:47.181Z,-80
2016-12-03T04:32:43.517Z,-77
2016-12-03T04:37:39.899Z,-80
2016-12-03T04:42:36.272Z,-81
2016-12-03T04:47:34.104Z,-80
2016-12-03T04:52:31.032Z,-80
2016-12-03T04:57:27.483Z,-80
2016-12-03T05:02:24.298Z,-80
2016-12-03T05:07:20.739Z,-80
2016-12-03T05:12:17.560Z,-80
2016-12-03T05:17:14.933Z,-81
2016-12-03T05:22:11.880Z,-80
2016-12-03T05:27:08.645Z,-80
2016-12-03T05:32:05.300Z,-80
2016-12-03T05:37:02.058Z,-81
2016-12-03T05:41:58.817Z,-80
2016-12-03T05:46:55.677Z,-80
2016-12-03T05:51:52.230Z,-79
2016-12-03T05:56:48.783Z,-80
2016-12-03T06:01:45.261Z,-81
2016-12-03T06:06:42.023Z,-80
2016-12-03T06:11:38.727Z,-80
2016-12-03T06:16:35.340Z,-80
2016-12-03T06:21:31.941Z,-81
2016-12-03T06:26:29.297Z,-80
2016-12-03T06:31:26.639Z,-79
2016-12-03T06:36:24.527Z,-80
2016-12-03T06:41:20.673Z,-79
2016-12-03T06:46:17.535Z,-80
2016-12-03T06:51:14.191Z,-81
2016-12-03T06:56:10.849Z,-79
2016-12-03T07:01:07.344Z,-77
2016-12-03T07:06:03.588Z,-79
2016-12-03T07:11:00.034Z,-78
2016-12-03T07:15:57.243Z,-79
2016-12-03T07:20:55.481Z,-80
2016-12-03T07:25:51.807Z,-79
2016-12-03T07:30:49.489Z,-76
2016-12-03T07:35:45.873Z,-79
2016-12-03T07:40:42.287Z,-77
2016-12-03T07:45:39.540Z,-78
2016-12-03T07:50:36.315Z,-78
2016-12-03T07:55:35.523Z,-74
2016-12-03T08:00:31.567Z,-76
2016-12-03T08:05:28.247Z,-73
2016-12-03T08:10:24.505Z,-79
2016-12-03T08:15:21.128Z,-77
2016-12-03T08:20:18.619Z,-81
2016-12-03T08:25:15.376Z,-79
2016-12-03T08:30:12.026Z,-80
2016-12-03T08:35:08.990Z,-75
2016-12-03T08:40:05.728Z,-79
2016-12-03T08:45:02.129Z,-81
2016-12-03T08:49:58.645Z,-79
2016-12-03T08:54:55.242Z,-80
2016-12-03T08:59:51.748Z,-80
2016-12-03T09:04:48.931Z,-81
2016-12-03T09:09:47.031Z,-79
2016-12-03T09:14:43.348Z,-81
2016-12-03T09:19:41.028Z,-83
2016-12-03T09:24:37.383Z,-75
2016-12-03T09:29:34.131Z,-76
2016-12-03T09:34:31.392Z,-76
2016-12-03T09:39:27.892Z,-75
2016-12-03T09:44:24.209Z,-76
2016-12-03T09:49:20.834Z,-76
2016-12-03T09:54:17.599Z,-75
2016-12-03T09:59:15.223Z,-77
2016-12-03T10:04:12.332Z,-78
2016-12-03T10:09:08.946Z,-76
2016-12-03T10:14:05.816Z,-76
2016-12-03T10:19:03.235Z,-75
2016-12-03T10:24:00.027Z,-75
2016-12-03T10:28:57.604Z,-77
2016-12-03T10:33:54.276Z,-75
2016-12-03T10:38:50.959Z,-75
2016-12-03T10:43:47.987Z,-77
2016-12-03T10:48:44.733Z,-75
2016-12-03T10:53:41.318Z,-76
2016-12-03T10:58:38.045Z,-77
2016-12-03T11:03:34.661Z,-77
2016-12-03T11:13:32.189Z,-76
2016-12-03T11:18:29.709Z,-72
2016-12-03T11:23:26.515Z,-75
2016-12-03T11:28:23.220Z,-75
2016-12-03T11:33:19.601Z,-79
2016-12-03T11:38:16.196Z,-77
2016-12-03T11:43:12.606Z,-78
2016-12-03T11:53:09.383Z,-76
2016-12-03T11:58:07.000Z,-77
2016-12-03T12:03:03.285Z,-76
2016-12-03T12:13:02.868Z,-77
2016-12-03T12:17:59.020Z,-75
2016-12-03T12:22:57.449Z,-71
2016-12-03T12:27:53.374Z,-75
2016-12-03T12:32:51.067Z,-73
2016-12-03T12:37:47.415Z,-70
2016-12-03T12:42:44.108Z,-67
2016-12-03T12:47:40.766Z,-70
2016-12-03T12:52:37.486Z,-69
2016-12-03T12:57:34.141Z,-68
2016-12-03T13:02:30.982Z,-68
2016-12-03T13:12:30.968Z,-66
2016-12-03T13:17:27.410Z,-68
2016-12-03T13:22:24.299Z,-70
2016-12-03T13:27:20.666Z,-71
2016-12-03T13:32:17.076Z,-71
2016-12-03T13:37:13.340Z,-70
2016-12-03T13:42:10.726Z,-71
2016-12-03T13:47:07.058Z,-77
2016-12-03T13:52:04.342Z,-77
2016-12-03T13:57:02.196Z,-75
2016-12-03T14:02:01.717Z,-79
2016-12-03T14:06:58.166Z,-74
2016-12-03T14:11:57.795Z,-78
2016-12-03T14:16:59.749Z,-74
2016-12-03T14:21:55.920Z,-79
2016-12-03T14:26:52.733Z,-81
2016-12-03T14:31:49.330Z,-82
2016-12-03T14:36:45.861Z,-84
2016-12-03T14:41:42.948Z,-84
2016-12-03T14:46:40.233Z,-81
2016-12-03T14:51:38.184Z,-80
2016-12-03T14:56:34.848Z,-82
2016-12-03T15:01:31.262Z,-77
2016-12-03T15:06:28.032Z,-84
2016-12-03T15:11:24.181Z,-77
2016-12-03T15:16:20.821Z,-73
2016-12-03T15:21:17.232Z,-73
2016-12-03T15:31:16.128Z,-73
2016-12-03T15:41:15.975Z,-74
2016-12-03T15:46:12.074Z,-74
2016-12-03T15:51:08.321Z,-74
2016-12-03T15:56:04.888Z,-73
2016-12-03T16:01:01.184Z,-74
2016-12-03T16:06:00.950Z,-74
2016-12-03T16:10:57.010Z,-74
2016-12-03T16:15:53.171Z,-75
2016-12-03T16:20:49.390Z,-74
2016-12-03T16:25:46.020Z,-73
2016-12-03T16:30:42.759Z,-74
2016-12-03T16:35:39.378Z,-74
2016-12-03T16:40:35.539Z,-75
2016-12-03T16:45:31.896Z,-75
2016-12-03T16:50:29.429Z,-74
2016-12-03T16:55:25.874Z,-75
2016-12-03T17:00:22.065Z,-77
2016-12-03T17:05:18.430Z,-78
2016-12-03T17:10:15.875Z,-76
2016-12-03T17:15:12.294Z,-75
2016-12-03T17:20:08.778Z,-75
2016-12-03T17:25:05.296Z,-77
2016-12-03T17:30:02.411Z,-74
2016-12-03T17:34:59.551Z,-76
2016-12-03T17:39:56.791Z,-75
2016-12-03T17:44:54.891Z,-75
2016-12-03T17:49:51.030Z,-78
2016-12-03T17:54:47.629Z,-75
2016-12-03T17:59:43.998Z,-74
2016-12-03T18:04:40.368Z,-74
2016-12-03T18:09:36.938Z,-77
2016-12-03T18:14:33.365Z,-75
2016-12-03T18:19:29.516Z,-76
2016-12-03T18:24:26.765Z,-74
2016-12-03T18:29:23.216Z,-75
2016-12-03T18:34:19.446Z,-75
2016-12-03T18:39:16.019Z,-75
2016-12-03T18:44:12.268Z,-74
2016-12-03T18:49:08.613Z,-74
2016-12-03T18:54:05.108Z,-76
2016-12-03T18:59:01.531Z,-75
2016-12-03T19:03:58.382Z,-76
2016-12-03T19:08:55.143Z,-74
2016-12-03T19:13:51.739Z,-75
2016-12-03T19:18:48.619Z,-74
2016-12-03T19:23:44.844Z,-74
2016-12-03T19:28:42.145Z,-75
2016-12-03T19:33:38.633Z,-74
2016-12-03T19:38:35.094Z,-74
2016-12-03T19:43:31.642Z,-74
2016-12-03T19:48:28.337Z,-73
2016-12-03T19:53:25.498Z,-74
2016-12-03T19:58:23.123Z,-75
2016-12-03T20:03:19.397Z,-76
2016-12-03T20:08:15.682Z,-74
2016-12-03T20:13:12.029Z,-75
2016-12-03T20:18:09.291Z,-74
2016-12-03T20:23:05.490Z,-74
2016-12-03T20:28:02.375Z,-75
2016-12-03T20:32:59.213Z,-74
2016-12-03T20:37:55.215Z,-74
2016-12-03T20:42:52.463Z,-74
2016-12-03T20:47:49.719Z,-74
2016-12-03T20:52:47.473Z,-74
2016-12-03T20:57:44.330Z,-74
2016-12-03T21:02:42.004Z,-75
2016-12-03T21:07:38.027Z,-74
2016-12-03T21:12:36.446Z,-74
2016-12-03T21:17:32.485Z,-74
2016-12-03T21:22:28.810Z,-77
2016-12-03T21:27:25.285Z,-74
2016-12-03T21:32:22.396Z,-74
2016-12-03T21:37:18.697Z,-75
2016-12-03T21:42:15.048Z,-74
2016-12-03T21:47:11.730Z,-75
2016-12-03T21:52:08.522Z,-74
2016-12-03T21:57:04.912Z,-75
2016-12-03T22:02:01.465Z,-74
2016-12-03T22:06:58.017Z,-74
2016-12-03T22:16:55.528Z,-74
2016-12-03T22:21:52.044Z,-74
2016-12-03T22:26:48.737Z,-73
2016-12-03T22:31:46.521Z,-74
2016-12-03T22:36:43.862Z,-74
2016-12-03T22:41:40.817Z,-73
2016-12-03T22:46:37.588Z,-73
2016-12-03T22:51:33.976Z,-74
2016-12-03T22:56:30.841Z,-75
2016-12-03T23:01:27.218Z,-74
2016-12-03T23:06:23.865Z,-74
2016-12-03T23:11:21.390Z,-73
2016-12-03T23:16:17.738Z,-73
2016-12-03T23:21:15.734Z,-74
2016-12-03T23:26:13.710Z,-75
2016-12-03T23:31:10.276Z,-73
2016-12-03T23:36:07.850Z,-72
2016-12-03T23:41:04.033Z,-73
2016-12-03T23:46:00.652Z,-73
2016-12-03T23:50:57.288Z,-72
2016-12-03T23:55:54.357Z,-72
